Time;durP1;ratioP1;P1;durP2;ratioP2;P2;SDS_P1;SDS_P2;PMS_P1;PMS_P2;Temp;Humidity;BMP_temperature;BMP_pressure;BME280_temperature;BME280_humidity;BME280_pressure;Samples;Min_cycle;Max_cycle;Signal;HPM_P1;HPM_P2
2021/11/11 00:00:25;;;;;;;85.97;26.80;;;;;;;-0.81;100.00;100115.78;4997231;28;20115;-60
2021/11/11 00:02:52;;;;;;;66.90;26.58;;;;;;;-0.80;100.00;100104.28;4998638;28;20456;-61
2021/11/11 00:05:17;;;;;;;83.03;27.83;;;;;;;-0.92;100.00;100113.38;5002537;28;20433;-60
2021/11/11 00:07:43;;;;;;;88.68;24.92;;;;;;;-0.90;100.00;100114.03;4994855;28;20173;-60
2021/11/11 00:10:10;;;;;;;51.13;24.35;;;;;;;-0.90;100.00;100121.91;4999874;28;20472;-61
2021/11/11 00:12:36;;;;;;;93.43;25.60;;;;;;;-0.95;100.00;100117.13;4991983;28;20030;-61
2021/11/11 00:15:06;;;;;;;65.00;23.60;;;;;;;-0.92;100.00;100129.16;5002248;28;20061;-60
2021/11/11 00:17:31;;;;;;;39.13;21.17;;;;;;;-0.93;100.00;100132.75;5003168;28;20045;-60
2021/11/11 00:19:58;;;;;;;72.32;23.42;;;;;;;-1.16;100.00;100133.13;5004159;28;20831;-60
2021/11/11 00:22:23;;;;;;;86.72;21.90;;;;;;;-1.29;100.00;100123.91;5003450;28;20077;-60
2021/11/11 00:24:49;;;;;;;74.05;22.58;;;;;;;-1.32;100.00;100127.66;5004233;28;20056;-60
2021/11/11 00:27:15;;;;;;;67.97;22.63;;;;;;;-1.38;100.00;100125.59;4997519;28;20152;-60
2021/11/11 00:29:40;;;;;;;65.32;23.55;;;;;;;-1.42;100.00;100127.69;4995051;28;20061;-60
2021/11/11 00:32:06;;;;;;;78.40;24.50;;;;;;;-1.39;100.00;100121.31;4996408;28;20041;-60
2021/11/11 00:34:32;;;;;;;48.33;20.17;;;;;;;-1.36;100.00;100119.22;5003201;28;20026;-60
2021/11/11 00:36:58;;;;;;;98.22;21.45;;;;;;;-1.37;100.00;100119.38;4995870;28;20629;-60
2021/11/11 00:39:23;;;;;;;84.35;20.52;;;;;;;-1.33;100.00;100125.97;4999567;28;20092;-60
2021/11/11 00:41:49;;;;;;;89.20;20.73;;;;;;;-1.33;100.00;100120.72;4996408;28;20125;-60
2021/11/11 00:44:15;;;;;;;67.13;19.17;;;;;;;-1.28;100.00;100113.22;4994667;28;20763;-60
2021/11/11 00:46:41;;;;;;;53.25;17.50;;;;;;;-1.21;100.00;100116.13;5001645;28;20038;-60
2021/11/11 00:49:07;;;;;;;69.22;18.10;;;;;;;-1.20;100.00;100121.25;4998563;28;20050;-60
2021/11/11 00:51:34;;;;;;;75.35;16.73;;;;;;;-1.17;100.00;100122.75;4996656;28;20042;-60
2021/11/11 00:53:59;;;;;;;46.80;15.95;;;;;;;-1.17;100.00;100114.88;4998856;28;20047;-60
2021/11/11 00:56:25;;;;;;;74.43;18.10;;;;;;;-1.09;100.00;100118.41;5004272;28;20046;-60
2021/11/11 00:58:51;;;;;;;69.53;20.52;;;;;;;-1.10;100.00;100127.28;4999044;28;20067;-60
2021/11/11 01:01:16;;;;;;;106.68;19.83;;;;;;;-1.13;100.00;100116.22;5008017;28;20145;-60
2021/11/11 01:03:42;;;;;;;85.38;19.77;;;;;;;-1.17;100.00;100128.84;4997877;28;20064;-60
2021/11/11 01:06:11;;;;;;;49.15;18.80;;;;;;;-1.24;100.00;100125.13;5001550;28;20598;-60
2021/11/11 01:08:39;;;;;;;66.10;18.17;;;;;;;-1.22;100.00;100135.50;5007078;28;20057;-60
2021/11/11 01:11:05;;;;;;;40.05;18.80;;;;;;;-1.20;100.00;100128.28;5000472;28;20058;-60
2021/11/11 01:13:32;;;;;;;49.33;19.13;;;;;;;-1.15;100.00;100129.53;5007432;28;20064;-60
2021/11/11 01:15:58;;;;;;;54.50;18.63;;;;;;;-1.15;100.00;100131.31;5006592;28;20472;-60
2021/11/11 01:18:23;;;;;;;46.53;17.25;;;;;;;-1.15;100.00;100132.16;5001869;28;20038;-60
2021/11/11 01:20:49;;;;;;;45.30;18.05;;;;;;;-1.16;100.00;100124.41;5002376;28;20061;-60
2021/11/11 01:23:14;;;;;;;56.05;18.15;;;;;;;-1.36;100.00;100126.28;4995476;28;20030;-60
2021/11/11 01:25:41;;;;;;;60.00;18.20;;;;;;;-1.25;100.00;100126.09;5004587;28;20133;-60
2021/11/11 01:28:07;;;;;;;47.45;17.02;;;;;;;-1.24;100.00;100127.75;5007241;28;20034;-60
2021/11/11 01:30:33;;;;;;;64.03;15.73;;;;;;;-1.39;100.00;100118.69;5006046;28;20726;-60
2021/11/11 01:32:58;;;;;;;61.08;16.45;;;;;;;-1.35;100.00;100112.13;5001972;28;20026;-60
2021/11/11 01:35:24;;;;;;;76.47;18.10;;;;;;;-1.33;100.00;100115.47;4998774;28;20072;-60
2021/11/11 01:37:49;;;;;;;52.75;16.83;;;;;;;-1.34;100.00;100113.81;5002504;28;20041;-60
2021/11/11 01:40:18;;;;;;;41.25;16.33;;;;;;;-1.27;100.00;100114.91;4997814;28;20046;-60
2021/11/11 01:42:51;;;;;;;46.78;17.33;;;;;;;-1.22;100.00;100122.34;5002305;28;20137;-59
2021/11/11 01:45:17;;;;;;;44.25;17.13;;;;;;;-1.20;100.00;100118.63;5001893;28;20052;-59
2021/11/11 01:47:43;;;;;;;72.07;20.75;;;;;;;-1.15;100.00;100105.00;4997746;28;20464;-59
2021/11/11 01:50:10;;;;;;;67.22;20.20;;;;;;;-1.28;100.00;100107.97;5004425;28;21212;-59
2021/11/11 01:52:35;;;;;;;59.85;17.02;;;;;;;-1.43;100.00;100106.78;4999012;28;20099;-62
2021/11/11 01:55:01;;;;;;;59.03;17.90;;;;;;;-1.45;100.00;100106.09;5006573;28;20380;-58
2021/11/11 01:57:27;;;;;;;58.72;16.27;;;;;;;-1.43;100.00;100104.97;5001451;28;20030;-60
2021/11/11 01:59:53;;;;;;;53.58;16.42;;;;;;;-1.47;100.00;100100.13;5006482;28;20045;-59
2021/11/11 02:02:37;;;;;;;72.47;17.52;;;;;;;-1.37;100.00;100093.91;4990017;28;20042;-59
2021/11/11 02:05:04;;;;;;;31.95;14.85;;;;;;;-1.31;100.00;100095.13;5006440;28;20029;-59
2021/11/11 02:07:29;;;;;;;42.38;15.68;;;;;;;-1.27;100.00;100083.34;5005923;28;20060;-60
2021/11/11 02:09:55;;;;;;;43.15;16.13;;;;;;;-1.68;100.00;100079.31;5002845;28;20034;-59
2021/11/11 02:12:21;;;;;;;36.38;13.60;;;;;;;-1.59;100.00;100079.28;4997686;28;20478;-59
2021/11/11 02:14:47;;;;;;;45.75;13.35;;;;;;;-1.84;100.00;100075.47;5000905;28;20038;-59
2021/11/11 02:17:12;;;;;;;49.45;15.32;;;;;;;-1.77;100.00;100068.69;5002284;28;20508;-59
2021/11/11 02:19:45;;;;;;;41.70;16.10;;;;;;;-1.77;100.00;100081.84;5002625;28;20125;-61
2021/11/11 02:22:10;;;;;;;55.72;17.27;;;;;;;-1.64;100.00;100078.06;5001096;28;20045;-59
2021/11/11 02:24:36;;;;;;;38.55;15.50;;;;;;;-1.59;100.00;100081.09;4996031;28;20041;-59
2021/11/11 02:27:01;;;;;;;46.13;18.98;;;;;;;-1.49;100.00;100078.44;5000350;28;20054;-59
2021/11/11 02:29:28;;;;;;;66.05;24.45;;;;;;;-1.49;100.00;100078.44;4995616;28;20045;-60
2021/11/11 02:31:53;;;;;;;69.07;20.98;;;;;;;-1.47;100.00;100079.09;4993885;28;20058;-59
2021/11/11 02:34:20;;;;;;;42.60;17.58;;;;;;;-1.57;100.00;100084.41;4997227;28;20089;-59
2021/11/11 02:36:59;;;;;;;84.20;16.52;;;;;;;-1.66;100.00;100088.72;5006466;28;20034;-59
2021/11/11 02:39:32;;;;;;;37.85;14.02;;;;;;;-1.61;100.00;100075.97;5001875;28;20041;-61
2021/11/11 02:41:58;;;;;;;41.22;13.10;;;;;;;-1.53;100.00;100073.44;4996098;28;20120;-59
2021/11/11 02:44:24;;;;;;;37.92;13.32;;;;;;;-1.53;100.00;100076.06;5001141;28;20068;-59
2021/11/11 02:46:51;;;;;;;61.17;12.45;;;;;;;-1.63;100.00;100074.47;5005088;28;20046;-59
2021/11/11 02:49:17;;;;;;;73.28;12.52;;;;;;;-1.59;100.00;100081.09;4999227;28;20583;-60
2021/11/11 02:51:42;;;;;;;63.20;12.23;;;;;;;-1.70;100.00;100070.75;4998550;28;20045;-60
2021/11/11 02:54:08;;;;;;;72.35;12.65;;;;;;;-1.66;100.00;100066.88;5005021;28;20056;-60
2021/11/11 02:56:33;;;;;;;30.85;11.23;;;;;;;-1.70;100.00;100066.31;5005772;28;20049;-60
2021/11/11 02:58:59;;;;;;;34.88;11.85;;;;;;;-1.65;100.00;100064.06;5003683;28;20096;-59
2021/11/11 03:01:24;;;;;;;52.70;10.63;;;;;;;-1.84;100.00;100075.47;4998065;28;20065;-60
2021/11/11 03:03:50;;;;;;;46.63;11.50;;;;;;;-1.74;100.00;100080.72;4988984;28;20027;-59
2021/11/11 03:06:15;;;;;;;48.05;12.23;;;;;;;-1.76;100.00;100080.03;4997398;28;20435;-58
2021/11/11 03:08:41;;;;;;;50.00;11.20;;;;;;;-1.82;100.00;100080.59;4999342;28;20044;-59
2021/11/11 03:11:06;;;;;;;45.45;11.25;;;;;;;-1.81;100.00;100085.72;5003192;28;20116;-59
2021/11/11 03:13:32;;;;;;;46.40;11.18;;;;;;;-1.77;100.00;100084.47;5001561;28;20040;-59
2021/11/11 03:15:58;;;;;;;52.67;11.88;;;;;;;-1.87;100.00;100096.81;5000782;28;20319;-59
2021/11/11 03:18:25;;;;;;;50.10;11.43;;;;;;;-1.90;100.00;100090.97;5005743;28;20034;-59
2021/11/11 03:20:51;;;;;;;56.40;10.88;;;;;;;-1.94;100.00;100087.81;5001532;28;20949;-59
2021/11/11 03:23:16;;;;;;;66.63;11.73;;;;;;;-2.13;100.00;100077.31;5003702;28;20517;-59
2021/11/11 03:25:42;;;;;;;59.92;13.45;;;;;;;-2.10;100.00;100082.28;4991672;28;20786;-60
2021/11/11 03:28:08;;;;;;;88.90;13.45;;;;;;;-2.01;100.00;100092.78;4997944;28;20352;-59
2021/11/11 03:30:34;;;;;;;105.53;14.18;;;;;;;-2.02;100.00;100093.78;4983062;28;20038;-60
2021/11/11 03:33:00;;;;;;;63.72;13.90;;;;;;;-1.94;100.00;100087.00;4997369;28;20045;-59
2021/11/11 03:35:26;;;;;;;92.70;14.05;;;;;;;-1.97;100.00;100091.56;5001166;28;20052;-59
2021/11/11 03:37:53;;;;;;;49.53;13.15;;;;;;;-1.96;100.00;100085.31;5001006;28;20042;-59
2021/11/11 03:40:23;;;;;;;72.55;13.77;;;;;;;-1.93;100.00;100096.53;5000784;28;20118;-59
2021/11/11 03:42:49;;;;;;;67.05;13.32;;;;;;;-1.86;100.00;100087.09;5001559;28;20539;-59
2021/11/11 03:45:15;;;;;;;64.82;15.05;;;;;;;-1.82;100.00;100088.47;5004401;28;20020;-59
2021/11/11 03:47:40;;;;;;;74.05;14.75;;;;;;;-1.84;100.00;100082.56;5000491;28;20030;-59
2021/11/11 03:50:06;;;;;;;60.45;14.40;;;;;;;-1.83;100.00;100079.75;4999606;28;20097;-59
2021/11/11 03:52:32;;;;;;;70.85;14.23;;;;;;;-1.82;100.00;100081.44;5003958;28;20109;-60
2021/11/11 03:54:58;;;;;;;52.28;14.38;;;;;;;-1.56;100.00;100093.94;5000689;28;20483;-59
2021/11/11 03:57:23;;;;;;;28.17;12.82;;;;;;;-1.73;100.00;100093.69;4994738;28;20030;-60
2021/11/11 03:59:49;;;;;;;37.78;12.77;;;;;;;-1.77;100.00;100102.88;5001372;28;20029;-60
2021/11/11 04:02:14;;;;;;;27.20;11.43;;;;;;;-1.79;100.00;100104.81;5002368;28;20056;-60
2021/11/11 04:04:41;;;;;;;54.85;13.65;;;;;;;-1.68;100.00;100106.44;4998383;28;20030;-60
2021/11/11 04:07:06;;;;;;;91.88;12.20;;;;;;;-1.88;100.00;100121.41;4996400;28;20711;-60
2021/11/11 04:09:32;;;;;;;28.92;11.93;;;;;;;-1.73;100.00;100117.38;5006967;28;20121;-60
2021/11/11 04:11:58;;;;;;;78.55;11.68;;;;;;;-1.75;100.00;100113.22;4997827;28;20038;-60
2021/11/11 04:14:24;;;;;;;48.00;11.30;;;;;;;-1.78;100.00;100113.50;5002560;28;20100;-60
2021/11/11 04:16:49;;;;;;;40.53;10.85;;;;;;;-1.99;100.00;100114.50;5002532;28;20049;-60
2021/11/11 04:19:15;;;;;;;23.50;10.90;;;;;;;-1.89;100.00;100111.03;5004223;28;20042;-60
2021/11/11 04:21:40;;;;;;;39.10;11.32;;;;;;;-1.81;100.00;100117.25;5002139;28;20034;-60
2021/11/11 04:24:06;;;;;;;47.28;11.65;;;;;;;-1.85;100.00;100117.66;5004107;28;20113;-60
2021/11/11 04:26:35;;;;;;;94.35;11.05;;;;;;;-1.90;100.00;100112.00;5001885;28;20136;-60
2021/11/11 04:29:03;;;;;;;104.47;10.75;;;;;;;-1.92;100.00;100113.94;5011575;28;20120;-60
2021/11/11 04:31:35;;;;;;;77.13;10.05;;;;;;;-1.58;100.00;100112.50;4995322;28;20045;-60
2021/11/11 04:34:06;;;;;;;30.48;10.73;;;;;;;-1.71;100.00;100106.72;4999493;28;20030;-59
2021/11/11 05:01:10;;;;;;;37.33;8.82;;;;;;;-1.78;100.00;100106.44;4960849;28;20047;-61
2021/11/11 05:03:40;;;;;;;24.85;9.18;;;;;;;-1.75;100.00;100118.47;4961476;28;20041;-61
2021/11/11 05:06:06;;;;;;;24.63;8.55;;;;;;;-1.83;100.00;100118.34;4973207;28;20039;-59
2021/11/11 05:08:31;;;;;;;31.48;9.05;;;;;;;-1.81;100.00;100122.50;4993622;28;20042;-59
2021/11/11 05:10:57;;;;;;;22.10;8.32;;;;;;;-1.82;100.00;100125.25;5000508;28;20073;-60
2021/11/11 05:13:23;;;;;;;44.72;9.82;;;;;;;-1.80;100.00;100125.94;5004072;28;20049;-59
2021/11/11 05:15:49;;;;;;;34.85;8.57;;;;;;;-1.87;100.00;100125.72;4999388;28;20066;-59
2021/11/11 05:18:15;;;;;;;22.75;8.35;;;;;;;-1.91;100.00;100121.69;4998571;28;20109;-60
2021/11/11 05:20:40;;;;;;;40.40;8.32;;;;;;;-1.90;100.00;100123.34;4994275;28;20042;-60
2021/11/11 05:23:06;;;;;;;45.95;7.97;;;;;;;-1.93;100.00;100122.81;4998625;28;20030;-60
2021/11/11 05:25:33;;;;;;;47.00;8.88;;;;;;;-2.03;100.00;100120.19;5003236;28;20151;-59
2021/11/11 05:27:59;;;;;;;32.15;8.52;;;;;;;-2.07;100.00;100110.91;4999038;28;20038;-59
2021/11/11 05:30:25;;;;;;;40.30;7.88;;;;;;;-2.25;100.00;100103.72;4991872;28;20053;-59
2021/11/11 05:32:50;;;;;;;44.90;7.75;;;;;;;-2.21;100.00;100096.41;5003722;28;20494;-59
2021/11/11 05:35:16;;;;;;;23.88;7.88;;;;;;;-2.12;100.00;100098.22;4999927;28;20040;-60
2021/11/11 05:37:45;;;;;;;46.30;8.02;;;;;;;-2.21;100.00;100104.28;4998498;28;20028;-59
2021/11/11 05:40:13;;;;;;;38.83;8.35;;;;;;;-2.17;100.00;100095.19;5004951;28;20025;-59
2021/11/11 05:42:38;;;;;;;44.40;7.82;;;;;;;-2.15;100.00;100098.47;5001602;28;20018;-59
2021/11/11 05:45:08;;;;;;;39.50;8.60;;;;;;;-2.24;100.00;100083.56;4998464;28;20045;-59
2021/11/11 05:47:34;;;;;;;82.38;9.63;;;;;;;-2.23;100.00;100093.91;4988251;28;20085;-59
2021/11/11 05:49:59;;;;;;;46.35;8.57;;;;;;;-2.43;100.00;100095.69;5005070;28;20038;-60
2021/11/11 05:52:25;;;;;;;29.80;9.00;;;;;;;-2.31;100.00;100108.72;5001797;28;20053;-60
2021/11/11 05:54:51;;;;;;;34.88;9.70;;;;;;;-2.12;100.00;100121.84;5001492;28;20125;-60
2021/11/11 05:57:17;;;;;;;53.80;9.25;;;;;;;-2.12;100.00;100108.72;5004913;28;20492;-59
2021/11/11 05:59:42;;;;;;;65.43;8.50;;;;;;;-2.14;100.00;100121.16;5006952;28;20748;-60
2021/11/11 06:02:11;;;;;;;38.88;9.40;;;;;;;-2.08;100.00;100119.75;5000825;28;20042;-60
2021/11/11 06:04:38;;;;;;;34.45;8.30;;;;;;;-1.92;100.00;100119.19;4999556;28;20034;-60
2021/11/11 06:07:05;;;;;;;23.48;8.20;;;;;;;-1.85;100.00;100130.81;5000199;28;20041;-59
2021/11/11 06:09:30;;;;;;;25.98;8.93;;;;;;;-1.86;100.00;100129.97;5006110;28;20026;-59
2021/11/11 06:11:56;;;;;;;50.65;8.48;;;;;;;-2.00;100.00;100123.38;5021227;28;20396;-60
2021/11/11 06:14:21;;;;;;;61.00;8.15;;;;;;;-1.92;100.00;100113.94;4993011;28;20161;-61
2021/11/11 06:16:47;;;;;;;74.70;8.80;;;;;;;-2.13;100.00;100122.81;5003996;28;20133;-61
2021/11/11 06:19:13;;;;;;;36.58;8.55;;;;;;;-1.94;100.00;100132.47;5006595;28;20052;-61
2021/11/11 06:21:39;;;;;;;68.93;9.73;;;;;;;-1.88;100.00;100131.09;5005317;28;20050;-59
2021/11/11 06:24:13;;;;;;;77.57;10.60;;;;;;;-1.91;100.00;100126.13;4997122;28;20026;-60
2021/11/11 06:26:39;;;;;;;63.38;10.02;;;;;;;-1.87;100.00;100132.72;4997324;28;20045;-60
2021/11/11 06:29:04;;;;;;;35.03;8.32;;;;;;;-1.63;100.00;100124.41;5002458;28;20276;-60
2021/11/11 06:31:30;;;;;;;44.00;9.23;;;;;;;-1.58;100.00;100133.53;5000612;28;20038;-60
2021/11/11 06:33:56;;;;;;;44.50;8.73;;;;;;;-1.58;100.00;100149.28;5000304;28;20136;-60
2021/11/11 06:36:22;;;;;;;26.48;9.40;;;;;;;-1.64;100.00;100149.06;5001285;28;20146;-60
2021/11/11 06:38:48;;;;;;;68.82;10.77;;;;;;;-1.71;100.00;100153.22;4998139;28;20040;-60
2021/11/11 06:41:13;;;;;;;42.83;10.73;;;;;;;-1.68;100.00;100159.00;4998421;28;20041;-60
2021/11/11 06:43:39;;;;;;;45.38;8.65;;;;;;;-1.75;100.00;100165.78;5006366;28;20034;-60
2021/11/11 06:46:05;;;;;;;51.90;8.90;;;;;;;-1.61;100.00;100164.53;5005203;28;20185;-60
2021/11/11 06:48:31;;;;;;;26.55;8.68;;;;;;;-1.76;100.00;100166.75;5003650;28;20038;-60
2021/11/11 06:50:57;;;;;;;50.90;8.93;;;;;;;-1.87;100.00;100166.91;4998677;28;20161;-60
2021/11/11 06:53:26;;;;;;;27.15;8.13;;;;;;;-1.58;100.00;100170.31;5000433;28;20042;-60
2021/11/11 06:55:52;;;;;;;38.25;7.70;;;;;;;-1.53;100.00;100178.63;4998985;28;20137;-60
2021/11/11 06:58:22;;;;;;;27.00;7.35;;;;;;;-1.56;100.00;100172.81;5000051;28;20068;-60
2021/11/11 07:00:57;;;;;;;;;;;;;;;-1.41;100.00;100181.09;4997385;28;20045;-60
2021/11/11 07:03:23;;;;;;;14.88;7.18;;;;;;;-1.29;100.00;100182.59;5005292;28;19914;-61
2021/11/11 07:05:48;;;;;;;25.02;7.55;;;;;;;-1.29;100.00;100192.31;4999400;28;20048;-60
2021/11/11 07:08:14;;;;;;;20.20;7.45;;;;;;;-1.21;100.00;100198.50;5003890;28;20022;-60
2021/11/11 07:10:41;;;;;;;32.65;7.53;;;;;;;-1.16;100.00;100203.34;5000907;28;20042;-60
2021/11/11 07:13:07;;;;;;;31.10;8.05;;;;;;;-0.91;100.00;100199.22;5003528;28;20551;-61
2021/11/11 07:15:33;;;;;;;23.15;8.27;;;;;;;-1.12;100.00;100202.91;5005092;28;20133;-60
2021/11/11 07:17:59;;;;;;;26.00;8.93;;;;;;;-1.22;100.00;100202.09;5001658;28;20041;-60
2021/11/11 07:20:24;;;;;;;17.15;7.88;;;;;;;-1.29;100.00;100208.91;5004023;28;20054;-60
2021/11/11 07:22:54;;;;;;;16.90;7.60;;;;;;;-1.29;100.00;100214.16;4997070;28;20098;-60
2021/11/11 07:25:19;;;;;;;19.55;7.88;;;;;;;-1.33;100.00;100207.50;5000796;28;20057;-60
2021/11/11 07:27:49;;;;;;;23.95;7.97;;;;;;;-1.31;100.00;100213.47;4980811;28;20069;-60
2021/11/11 07:30:16;;;;;;;16.00;7.72;;;;;;;-1.12;100.00;100208.16;5001685;28;20072;-60
2021/11/11 07:32:41;;;;;;;17.35;8.07;;;;;;;-1.08;100.00;100206.88;4998604;28;20326;-60
2021/11/11 07:35:09;;;;;;;22.20;9.05;;;;;;;-0.95;100.00;100208.38;5001388;28;20022;-60
2021/11/11 07:37:36;;;;;;;20.50;8.25;;;;;;;-0.70;100.00;100209.53;5002440;28;20510;-60
2021/11/11 07:40:03;;;;;;;57.22;9.43;;;;;;;-1.22;100.00;100220.53;4995895;28;20061;-60
2021/11/11 07:42:28;;;;;;;51.70;8.82;;;;;;;-1.15;100.00;100232.13;5001956;28;20033;-60
2021/11/11 07:44:54;;;;;;;37.13;9.57;;;;;;;-1.37;100.00;100228.03;5004566;28;20069;-60
2021/11/11 07:47:27;;;;;;;22.30;9.13;;;;;;;-1.09;100.00;100236.81;5003539;28;20041;-60
2021/11/11 07:49:56;;;;;;;25.00;8.10;;;;;;;-1.49;100.00;100230.94;5003942;28;20033;-60
2021/11/11 07:52:23;;;;;;;13.40;7.60;;;;;;;-1.41;100.00;100225.81;4993262;28;20052;-61
2021/11/11 07:54:49;;;;;;;17.08;7.95;;;;;;;-1.52;100.00;100232.88;4998702;28;20425;-60
2021/11/11 07:57:15;;;;;;;16.00;7.50;;;;;;;-1.96;100.00;100232.47;5003831;28;20120;-61
2021/11/11 07:59:41;;;;;;;19.85;8.32;;;;;;;-1.62;100.00;100232.06;5004538;28;20038;-60
2021/11/11 08:02:07;;;;;;;14.32;8.00;;;;;;;-1.20;100.00;100233.50;4999196;28;20042;-61
2021/11/11 08:04:33;;;;;;;20.63;8.65;;;;;;;-1.26;100.00;100234.91;4998017;28;20112;-59
2021/11/11 08:06:58;;;;;;;18.58;7.78;;;;;;;-1.05;100.00;100239.16;4991953;28;20686;-60
2021/11/11 08:09:24;;;;;;;18.95;9.52;;;;;;;-1.27;100.00;100238.53;4996841;28;20072;-60
2021/11/11 08:11:50;;;;;;;12.70;7.53;;;;;;;-1.22;100.00;100233.69;5003621;28;20601;-59
2021/11/11 08:14:16;;;;;;;19.73;8.25;;;;;;;-0.86;100.00;100233.84;4991462;28;20029;-60
2021/11/11 08:16:42;;;;;;;23.63;8.85;;;;;;;-0.47;100.00;100238.97;4997578;28;20092;-60
2021/11/11 08:19:08;;;;;;;24.35;8.65;;;;;;;-1.37;100.00;100235.91;5002774;28;20104;-60
2021/11/11 08:21:33;;;;;;;20.92;8.32;;;;;;;-1.54;100.00;100234.81;4997942;28;20046;-60
2021/11/11 08:23:59;;;;;;;20.75;8.93;;;;;;;-1.60;100.00;100238.03;5003235;28;20033;-60
2021/11/11 08:26:25;;;;;;;11.02;6.25;;;;;;;-1.82;100.00;100235.63;5003096;28;20121;-60
2021/11/11 08:28:50;;;;;;;20.33;10.07;;;;;;;-1.54;100.00;100232.19;5000856;28;20096;-60
2021/11/11 08:31:17;;;;;;;27.95;9.02;;;;;;;-1.46;100.00;100228.84;5000135;28;20069;-61
2021/11/11 08:33:43;;;;;;;18.52;9.05;;;;;;;-1.18;100.00;100232.41;4998962;28;20089;-61
2021/11/11 08:36:08;;;;;;;37.28;9.32;;;;;;;-1.27;100.00;100229.78;5001284;28;20555;-61
2021/11/11 08:38:34;;;;;;;20.23;7.65;;;;;;;-1.38;100.00;100233.41;5001371;28;20033;-61
2021/11/11 08:41:00;;;;;;;28.05;8.35;;;;;;;-1.29;100.00;100227.31;4987910;28;20108;-61
2021/11/11 08:43:26;;;;;;;18.23;9.30;;;;;;;-1.08;100.00;100224.47;4998394;28;20042;-61
2021/11/11 08:45:51;;;;;;;16.23;7.88;;;;;;;-1.54;100.00;100226.94;4996175;28;20421;-61
2021/11/11 08:48:17;;;;;;;23.27;8.63;;;;;;;-0.96;100.00;100230.41;5002496;28;20723;-61
2021/11/11 08:50:43;;;;;;;75.55;9.85;;;;;;;-1.36;100.00;100229.66;4995936;28;20057;-61
2021/11/11 08:53:13;;;;;;;68.97;9.90;;;;;;;-1.41;100.00;100231.06;5002390;28;20065;-60
2021/11/11 08:55:38;;;;;;;45.17;8.77;;;;;;;-1.00;100.00;100239.56;4996934;28;20046;-61
2021/11/11 08:58:04;;;;;;;59.53;8.73;;;;;;;-1.33;100.00;100244.34;5000822;28;20040;-61
2021/11/11 09:00:32;;;;;;;25.95;9.88;;;;;;;-1.09;100.00;100239.44;5002124;28;20129;-61
2021/11/11 09:02:59;;;;;;;27.38;9.38;;;;;;;-0.75;100.00;100233.69;4998662;28;20084;-60
2021/11/11 09:05:25;;;;;;;45.08;9.00;;;;;;;-0.94;100.00;100236.38;5000830;28;20057;-60
2021/11/11 09:07:51;;;;;;;59.35;10.23;;;;;;;-0.62;100.00;100235.13;4999911;28;20108;-60
2021/11/11 09:10:20;;;;;;;68.75;10.32;;;;;;;-0.50;100.00;100233.97;5000413;28;20030;-60
2021/11/11 09:12:50;;;;;;;46.70;9.30;;;;;;;-0.26;100.00;100236.06;4995338;28;20048;-60
2021/11/11 09:15:16;;;;;;;68.50;9.25;;;;;;;-0.44;100.00;100233.38;5004172;28;20029;-60
2021/11/11 09:17:41;;;;;;;28.48;8.57;;;;;;;-0.91;100.00;100225.53;5003489;28;20519;-60
2021/11/11 09:20:08;;;;;;;38.78;8.98;;;;;;;-0.31;100.00;100228.59;5006119;28;20084;-60
2021/11/11 09:22:34;;;;;;;57.97;9.55;;;;;;;-0.40;100.00;100233.91;5004554;28;20120;-61
2021/11/11 09:25:04;;;;;;;48.17;9.02;;;;;;;-0.68;100.00;100239.16;5006653;28;20056;-60
2021/11/11 09:27:29;;;;;;;36.22;9.02;;;;;;;-0.27;100.00;100235.25;5002340;28;20566;-60
2021/11/11 09:29:55;;;;;;;16.05;8.85;;;;;;;-0.08;100.00;100231.63;5003224;28;20060;-60
2021/11/11 09:32:21;;;;;;;44.80;10.07;;;;;;;-0.10;100.00;100238.03;5006587;28;20080;-60
2021/11/11 09:34:47;;;;;;;47.30;8.75;;;;;;;-0.17;98.09;100240.44;5006565;28;20041;-60
2021/11/11 09:37:12;;;;;;;26.98;8.55;;;;;;;-0.56;99.32;100245.91;5005664;28;20124;-60
2021/11/11 09:39:38;;;;;;;24.15;9.93;;;;;;;-0.27;100.00;100240.50;5007702;28;20030;-60
2021/11/11 09:42:03;;;;;;;25.75;9.52;;;;;;;-0.19;100.00;100246.84;5001615;28;20038;-60
2021/11/11 09:44:29;;;;;;;36.13;10.00;;;;;;;-0.18;100.00;100240.59;5003163;28;20030;-60
2021/11/11 09:46:55;;;;;;;30.88;9.23;;;;;;;0.05;100.00;100244.47;4998651;28;20070;-60
2021/11/11 09:49:21;;;;;;;29.17;9.52;;;;;;;0.12;99.61;100245.50;5006379;28;20048;-60
2021/11/11 09:51:48;;;;;;;23.30;9.80;;;;;;;0.15;99.55;100244.38;5003604;28;20599;-60
2021/11/11 09:59:25;;;;;;;62.28;10.63;;;;;;;-0.34;100.00;100249.16;5000496;28;20040;-60
2021/11/11 10:01:51;;;;;;;65.25;10.63;;;;;;;-0.66;100.00;100245.94;5006234;28;20325;-60
2021/11/11 10:04:17;;;;;;;36.28;12.10;;;;;;;-0.26;100.00;100242.16;5001207;28;20076;-60
2021/11/11 10:06:43;;;;;;;42.90;10.77;;;;;;;-0.25;100.00;100242.97;5004477;28;20495;-60
2021/11/11 10:09:17;;;;;;;64.65;14.32;;;;;;;-0.16;100.00;100238.63;4994496;28;20125;-60
2021/11/11 10:11:51;;;;;;;85.40;14.15;;;;;;;0.06;100.00;100240.84;5005484;28;20041;-60
2021/11/11 10:14:24;;;;;;;75.85;16.00;;;;;;;0.17;100.00;100232.69;5006319;28;20026;-60
2021/11/11 10:16:56;;;;;;;49.63;15.50;;;;;;;0.23;100.00;100230.47;4999926;28;20491;-60
2021/11/11 10:19:22;;;;;;;36.22;15.32;;;;;;;0.68;100.00;100237.44;5006395;28;20228;-61
2021/11/11 10:22:02;;;;;;;27.08;15.00;;;;;;;1.02;100.00;100222.50;5000398;28;20130;-61
2021/11/11 10:24:46;;;;;;;33.38;13.85;;;;;;;1.20;99.24;100226.84;5004922;28;20040;-60
2021/11/11 10:27:24;;;;;;;44.78;14.63;;;;;;;1.36;97.10;100226.94;5000959;28;20030;-60
2021/11/11 10:29:54;;;;;;;29.63;13.10;;;;;;;1.19;97.01;100227.84;4997137;28;20109;-61
2021/11/11 10:32:36;;;;;;;30.42;14.00;;;;;;;1.13;97.35;100225.84;4994018;28;20038;-61
2021/11/11 10:35:08;;;;;;;34.17;13.90;;;;;;;1.13;97.15;100225.84;4973174;28;20033;-60
2021/11/11 10:37:35;;;;;;;43.20;14.70;;;;;;;0.81;97.78;100235.22;5004898;28;20095;-61
2021/11/11 10:40:04;;;;;;;27.58;15.77;;;;;;;1.03;99.39;100232.06;4999927;28;20128;-59
2021/11/11 10:42:30;;;;;;;42.13;14.68;;;;;;;0.67;99.15;100228.66;5006005;28;20041;-61
2021/11/11 10:44:56;;;;;;;25.95;13.18;;;;;;;1.11;99.98;100227.81;5002200;28;20696;-61
2021/11/11 10:47:32;;;;;;;23.92;12.15;;;;;;;1.22;100.00;100223.09;5000814;28;20548;-60
2021/11/11 10:49:59;;;;;;;23.63;12.73;;;;;;;1.27;100.00;100225.22;5002571;28;20026;-60
2021/11/11 10:52:32;;;;;;;27.48;13.18;;;;;;;1.56;100.00;100229.34;5004239;28;20060;-60
2021/11/11 10:54:58;;;;;;;25.48;12.20;;;;;;;1.25;99.33;100221.94;4999203;28;20025;-60
2021/11/11 10:58:13;;;;;;;25.08;11.55;;;;;;;1.11;99.87;100222.53;5004437;28;20534;-60
2021/11/11 11:00:58;;;;;;;28.50;12.48;;;;;;;1.47;99.60;100226.66;4983254;28;20128;-60
2021/11/11 11:03:32;;;;;;;17.13;10.05;;;;;;;1.21;98.19;100220.59;5002660;28;20061;-60
2021/11/11 11:06:27;;;;;;;18.17;9.90;;;;;;;1.57;99.04;100225.69;5000454;28;20078;-60
2021/11/11 11:08:55;;;;;;;21.80;10.02;;;;;;;1.57;97.87;100223.06;5001897;28;20125;-60
2021/11/11 11:11:28;;;;;;;23.27;11.00;;;;;;;1.47;98.43;100226.66;4997129;28;20056;-60
2021/11/11 11:13:58;;;;;;;28.48;12.77;;;;;;;1.64;98.80;100227.53;4996370;28;20065;-62
2021/11/11 11:16:26;;;;;;;26.58;14.27;;;;;;;1.90;99.59;100224.00;5000517;28;20045;-60
2021/11/11 11:18:58;;;;;;;48.97;12.65;;;;;;;1.61;96.23;100214.66;5000178;28;20430;-60
2021/11/11 11:21:35;;;;;;;22.27;12.25;;;;;;;1.42;97.69;100218.41;5003020;28;20080;-60
2021/11/11 11:24:06;;;;;;;25.90;11.85;;;;;;;1.33;98.84;100213.22;4999228;28;20022;-60
2021/11/11 11:26:35;;;;;;;27.65;13.65;;;;;;;1.88;100.00;100202.19;4998786;28;20564;-63
2021/11/11 11:31:50;;;;;;;29.17;12.52;;;;;;;1.83;98.22;100191.25;4996896;28;20045;-62
2021/11/11 11:34:19;;;;;;;24.60;13.13;;;;;;;1.59;98.72;100198.13;5001299;28;20030;-61
2021/11/11 11:36:46;;;;;;;37.42;13.75;;;;;;;1.87;98.96;100190.78;4999952;28;20041;-61
2021/11/11 11:39:14;;;;;;;34.40;13.27;;;;;;;1.73;98.39;100199.34;5001030;28;20152;-62